Time,TemperatureF,DewpointF,PressureIn,WindDirection,WindDirectionDegrees,WindSpeedMPH,WindSpeedGustMPH,Humidity,HourlyPrecipIn,Conditions,Clouds,dailyrainin,SoftwareType,DateUTC
2013-03-27 00:02:00,46.0,40.0,-100.00,East,95,3.0,6.0,79,-99.99,,,-99.99,,2013-03-27 07:02:00,
2013-03-27 00:10:00,45.0,40.0,-100.00,ESE,105,3.0,6.0,82,-99.99,,,-99.99,,2013-03-27 07:10:00,
2013-03-27 01:02:00,45.0,40.0,-100.00,ESE,105,3.0,6.0,82,-99.99,,,-99.99,,2013-03-27 08:02:00,
2013-03-27 01:10:00,44.0,40.0,-100.00,East,85,0.0,2.0,85,-99.99,,,-99.99,,2013-03-27 08:10:00,
2013-03-27 02:01:00,44.0,40.0,-100.00,East,85,0.0,2.0,85,-99.99,,,-99.99,,2013-03-27 09:01:00,
2013-03-27 02:10:00,44.0,40.0,-100.00,North,-999,0.0,0.0,85,-99.99,,,-99.99,,2013-03-27 09:10:00,
2013-03-27 03:02:00,44.0,40.0,-100.00,North,-999,0.0,0.0,85,-99.99,,,-99.99,,2013-03-27 10:02:00,
2013-03-27 03:10:00,43.0,40.0,-100.00,North,-999,0.0,0.0,89,-99.99,,,-99.99,,2013-03-27 10:10:00,
2013-03-27 04:02:00,43.0,40.0,-100.00,North,-999,0.0,0.0,89,-99.99,,,-99.99,,2013-03-27 11:02:00,
2013-03-27 04:10:00,43.0,40.0,-100.00,ESE,105,3.0,5.0,89,-99.99,,,-99.99,,2013-03-27 11:10:00,
2013-03-27 05:02:00,43.0,40.0,-100.00,ESE,105,3.0,5.0,89,-99.99,,,-99.99,,2013-03-27 12:02:00,
2013-03-27 05:10:00,42.0,39.0,-100.00,East,100,2.0,6.0,89,-99.99,,,-99.99,,2013-03-27 12:10:00,
2013-03-27 06:02:00,42.0,39.0,-100.00,East,100,2.0,6.0,89,-99.99,,,-99.99,,2013-03-27 13:02:00,
2013-03-27 06:10:00,42.0,40.0,-100.00,East,100,5.0,7.0,92,-99.99,,,-99.99,,2013-03-27 13:10:00,
2013-03-27 07:02:00,42.0,40.0,-100.00,East,100,5.0,7.0,92,-99.99,,,-99.99,,2013-03-27 14:02:00,
2013-03-27 07:10:00,42.0,39.0,-100.00,NE,50,0.0,6.0,89,-99.99,,,-99.99,,2013-03-27 14:10:00,
2013-03-27 08:02:00,42.0,39.0,-100.00,NE,50,0.0,6.0,89,-99.99,,,-99.99,,2013-03-27 15:02:00,
2013-03-27 08:10:00,43.0,40.0,-100.00,NNE,20,0.0,3.0,89,-99.99,,,-99.99,,2013-03-27 15:10:00,
2013-03-27 09:02:00,43.0,40.0,-100.00,NNE,20,0.0,3.0,89,-99.99,,,-99.99,,2013-03-27 16:02:00,
2013-03-27 10:10:00,54.0,43.0,-100.00,SW,230,1.0,5.0,66,-99.99,,,-99.99,,2013-03-27 17:10:00,
2013-03-27 11:02:00,54.0,43.0,-100.00,SW,230,1.0,5.0,66,-99.99,,,-99.99,,2013-03-27 18:02:00,
2013-03-27 11:10:00,52.0,43.0,-100.00,NW,310,1.0,6.0,71,-99.99,,,-99.99,,2013-03-27 18:10:00,
2013-03-27 12:02:00,52.0,43.0,-100.00,NW,310,1.0,6.0,71,-99.99,,,-99.99,,2013-03-27 19:02:00,
2013-03-27 12:10:00,54.0,42.0,-100.00,WNW,300,2.0,6.0,63,-99.99,,,-99.99,,2013-03-27 19:10:00,
2013-03-27 13:02:00,54.0,42.0,-100.00,WNW,300,2.0,6.0,63,-99.99,,,-99.99,,2013-03-27 20:02:00,
2013-03-27 13:10:00,56.0,42.0,-100.00,WNW,300,2.0,7.0,59,-99.99,,,-99.99,,2013-03-27 20:10:00,
2013-03-27 14:02:00,56.0,42.0,-100.00,WNW,300,2.0,7.0,59,-99.99,,,-99.99,,2013-03-27 21:02:00,
2013-03-27 14:10:00,56.0,43.0,-100.00,WSW,255,2.0,6.0,61,-99.99,,,-99.99,,2013-03-27 21:10:00,
2013-03-27 15:03:00,56.0,43.0,-100.00,WSW,255,2.0,6.0,61,-99.99,,,-99.99,,2013-03-27 22:03:00,
2013-03-27 15:10:00,56.0,44.0,-100.00,NW,315,1.0,3.0,63,-99.99,,,-99.99,,2013-03-27 22:10:00,
2013-03-27 16:02:00,56.0,44.0,-100.00,NW,315,1.0,3.0,63,-99.99,,,-99.99,,2013-03-27 23:02:00,
2013-03-27 16:10:00,52.0,49.0,-100.00,North,-999,0.0,0.0,89,-99.99,,,-99.99,,2013-03-27 23:10:00,
2013-03-27 17:02:00,52.0,49.0,-100.00,North,-999,0.0,0.0,89,-99.99,,,-99.99,,2013-03-28 00:02:00,
2013-03-27 17:10:00,52.0,49.0,-100.00,NNE,15,1.0,2.0,89,-99.99,,,-99.99,,2013-03-28 00:10:00,
2013-03-27 18:02:00,52.0,49.0,-100.00,NNE,15,1.0,2.0,89,-99.99,,,-99.99,,2013-03-28 01:02:00,
2013-03-27 18:10:00,51.0,49.0,-100.00,NE,50,0.0,3.0,92,-99.99,,,-99.99,,2013-03-28 01:10:00,
2013-03-27 19:02:00,51.0,49.0,-100.00,NE,50,0.0,3.0,92,-99.99,,,-99.99,,2013-03-28 02:02:00,
2013-03-27 19:10:00,49.0,47.0,-100.00,NE,55,1.0,3.0,92,-99.99,,,-99.99,,2013-03-28 02:10:00,
2013-03-27 20:02:00,49.0,47.0,-100.00,NE,55,1.0,3.0,92,-99.99,,,-99.99,,2013-03-28 03:02:00,
2013-03-27 20:10:00,47.0,45.0,-100.00,ESE,110,3.0,6.0,92,-99.99,,,-99.99,,2013-03-28 03:10:00,
2013-03-27 21:02:00,47.0,45.0,-100.00,ESE,110,3.0,6.0,92,-99.99,,,-99.99,,2013-03-28 04:02:00,
2013-03-27 21:10:00,45.0,44.0,-100.00,NE,55,2.0,6.0,96,-99.99,,,-99.99,,2013-03-28 04:10:00,
2013-03-27 22:02:00,45.0,44.0,-100.00,NE,55,2.0,6.0,96,-99.99,,,-99.99,,2013-03-28 05:02:00,
2013-03-27 22:10:00,44.0,43.0,-100.00,ESE,105,1.0,6.0,96,-99.99,,,-99.99,,2013-03-28 05:10:00,
2013-03-27 23:02:00,44.0,43.0,-100.00,ESE,105,1.0,6.0,96,-99.99,,,-99.99,,2013-03-28 06:02:00,
2013-03-27 23:10:00,42.0,42.0,-100.00,ENE,60,1.0,3.0,100,-99.99,,,-99.99,,2013-03-28 06:10:00,